Time;durP1;ratioP1;P1;durP2;ratioP2;P2;SDS_P1;SDS_P2;PMS_P1;PMS_P2;Temp;Humidity;BMP_temperature;BMP_pressure;BME280_temperature;BME280_humidity;BME280_pressure;Samples;Min_cycle;Max_cycle;Signal;HPM_P1;HPM_P2
2023/08/29 00:00:34;;;;;;;7.70;5.13;;;14.30;99.90;;;;;;5021487;28;20025;-75
2023/08/29 00:03:03;;;;;;;10.50;5.65;;;14.20;99.90;;;;;;5021059;28;20045;-73
2023/08/29 00:05:29;;;;;;;8.32;6.00;;;14.30;99.90;;;;;;5020429;28;20041;-73
2023/08/29 00:07:55;;;;;;;7.88;5.55;;;14.20;99.90;;;;;;5020018;28;20724;-74
2023/08/29 00:10:21;;;;;;;10.77;6.43;;;14.20;99.90;;;;;;5021257;28;20014;-75
2023/08/29 00:12:47;;;;;;;12.63;6.78;;;14.20;99.90;;;;;;5021466;28;20041;-74
2023/08/29 00:15:12;;;;;;;9.80;6.90;;;14.20;99.90;;;;;;5021244;28;20022;-74
2023/08/29 00:17:38;;;;;;;12.73;6.43;;;14.10;99.90;;;;;;5021198;28;20025;-74
2023/08/29 00:20:04;;;;;;;11.05;6.55;;;14.10;99.90;;;;;;5021339;28;20040;-73
2023/08/29 00:22:30;;;;;;;9.73;6.45;;;14.10;99.90;;;;;;5021219;28;20398;-73
2023/08/29 00:24:56;;;;;;;10.35;7.45;;;14.10;99.90;;;;;;5021123;28;20033;-74
2023/08/29 00:27:22;;;;;;;10.82;7.15;;;14.10;99.90;;;;;;5019527;28;20022;-75
2023/08/29 00:29:48;;;;;;;10.57;7.38;;;14.10;99.90;;;;;;5020624;28;20022;-74
2023/08/29 00:32:14;;;;;;;13.77;7.78;;;14.10;99.90;;;;;;5019725;28;20103;-73
2023/08/29 00:34:39;;;;;;;10.70;7.78;;;14.10;99.90;;;;;;5020850;28;20065;-74
2023/08/29 00:37:05;;;;;;;11.35;7.30;;;14.00;99.90;;;;;;5019566;28;20027;-74
2023/08/29 00:39:31;;;;;;;12.88;7.93;;;14.10;99.90;;;;;;5019924;28;20018;-74
2023/08/29 00:41:57;;;;;;;10.65;8.05;;;14.00;99.90;;;;;;5021076;28;20022;-74
2023/08/29 00:44:23;;;;;;;11.30;7.90;;;14.00;99.90;;;;;;5020580;28;20046;-73
2023/08/29 00:46:49;;;;;;;12.88;8.32;;;14.00;99.90;;;;;;5020762;28;20026;-72
2023/08/29 00:49:19;;;;;;;14.15;9.02;;;13.90;99.90;;;;;;5019619;28;20025;-74
2023/08/29 00:51:45;;;;;;;13.68;9.30;;;13.90;99.90;;;;;;5019323;28;20026;-74
2023/08/29 00:54:13;;;;;;;12.90;9.68;;;13.90;99.90;;;;;;5020981;28;20503;-73
2023/08/29 00:56:40;;;;;;;16.25;9.98;;;13.90;99.90;;;;;;5020858;28;20096;-74
2023/08/29 00:59:06;;;;;;;17.00;9.65;;;13.90;99.90;;;;;;5022826;28;20064;-74
2023/08/29 01:01:34;;;;;;;20.90;9.38;;;13.90;99.90;;;;;;5024187;28;20026;-73
2023/08/29 01:04:00;;;;;;;15.43;9.75;;;13.80;99.90;;;;;;5023110;28;20069;-74
2023/08/29 01:06:26;;;;;;;15.73;10.00;;;13.90;99.90;;;;;;5023552;28;20030;-74
2023/08/29 01:08:52;;;;;;;13.90;9.63;;;13.80;99.90;;;;;;5024204;28;20424;-73
2023/08/29 01:11:21;;;;;;;16.33;9.90;;;13.80;99.90;;;;;;5022666;28;20022;-74
2023/08/29 01:13:57;;;;;;;18.50;9.93;;;13.80;99.90;;;;;;5023739;28;20030;-73
2023/08/29 01:16:29;;;;;;;15.18;9.70;;;13.80;99.90;;;;;;5024111;28;20063;-73
2023/08/29 01:18:56;;;;;;;12.95;9.35;;;13.80;99.90;;;;;;5022434;28;20081;-73
2023/08/29 01:21:45;;;;;;;16.25;9.65;;;13.80;99.90;;;;;;5023971;28;20451;-73
2023/08/29 01:24:23;;;;;;;16.33;10.55;;;13.80;99.90;;;;;;5023664;28;20048;-74
2023/08/29 01:26:49;;;;;;;18.13;10.15;;;13.80;99.90;;;;;;5023248;28;20545;-73
2023/08/29 01:29:15;;;;;;;15.27;9.52;;;13.70;99.90;;;;;;5023767;28;20018;-72
2023/08/29 01:31:41;;;;;;;16.80;9.50;;;13.70;99.90;;;;;;5023924;28;20022;-74
2023/08/29 01:34:08;;;;;;;15.38;8.90;;;13.70;99.90;;;;;;5021891;28;20501;-75
2023/08/29 01:36:42;;;;;;;12.25;9.48;;;13.70;99.90;;;;;;5022509;28;20047;-74
2023/08/29 01:39:08;;;;;;;12.70;8.73;;;13.70;99.90;;;;;;5023770;28;20073;-76
2023/08/29 01:41:34;;;;;;;14.75;9.13;;;13.70;99.90;;;;;;5023102;28;20026;-73
2023/08/29 01:44:02;;;;;;;13.45;8.40;;;13.70;99.90;;;;;;5023573;28;20046;-74
2023/08/29 01:46:28;;;;;;;13.45;8.48;;;13.70;99.90;;;;;;5022722;28;20419;-74
2023/08/29 01:48:54;;;;;;;12.43;7.85;;;13.70;99.90;;;;;;5022411;28;20558;-76
2023/08/29 01:51:20;;;;;;;12.20;8.15;;;13.70;99.90;;;;;;5023456;28;20029;-73
2023/08/29 01:53:45;;;;;;;12.35;8.23;;;13.70;99.90;;;;;;5022781;28;20025;-75
2023/08/29 01:56:14;;;;;;;13.23;8.50;;;13.70;99.90;;;;;;5023114;28;20025;-74
2023/08/29 01:58:40;;;;;;;15.75;8.48;;;13.60;99.90;;;;;;5023337;28;20085;-73
2023/08/29 02:01:06;;;;;;;10.52;7.05;;;13.60;99.90;;;;;;5022935;28;20036;-73
2023/08/29 02:03:31;;;;;;;7.13;5.38;;;13.60;99.90;;;;;;5021896;28;20053;-74
2023/08/29 02:05:58;;;;;;;6.80;4.75;;;13.50;99.90;;;;;;5023411;28;20121;-74
2023/08/29 02:08:24;;;;;;;6.20;3.88;;;13.40;99.90;;;;;;5022539;28;20021;-73
2023/08/29 02:10:49;;;;;;;4.85;3.10;;;13.30;99.90;;;;;;5023138;28;20026;-75
2023/08/29 02:13:15;;;;;;;4.15;2.95;;;13.20;99.90;;;;;;5023190;28;20022;-75
2023/08/29 02:15:41;;;;;;;5.65;3.50;;;13.20;99.90;;;;;;5021361;28;20026;-73
2023/08/29 02:18:06;;;;;;;4.38;3.55;;;13.10;99.90;;;;;;5021574;28;20041;-74
2023/08/29 02:20:32;;;;;;;5.20;3.40;;;13.00;99.90;;;;;;5021789;28;20022;-75
2023/08/29 02:22:57;;;;;;;6.45;3.30;;;12.90;99.90;;;;;;5022878;28;20030;-74
2023/08/29 02:25:23;;;;;;;4.43;3.00;;;12.90;99.90;;;;;;5022829;28;20170;-75
2023/08/29 02:27:48;;;;;;;3.80;2.90;;;12.80;99.90;;;;;;5020758;28;20482;-74
2023/08/29 02:30:14;;;;;;;4.82;3.25;;;12.80;99.90;;;;;;5021063;28;20047;-74
2023/08/29 02:32:40;;;;;;;5.15;3.80;;;12.70;99.90;;;;;;5022780;28;20037;-75
2023/08/29 02:35:07;;;;;;;6.78;3.83;;;12.70;99.90;;;;;;5021577;28;20046;-74
2023/08/29 02:37:34;;;;;;;8.15;4.47;;;12.70;99.90;;;;;;5022213;28;20040;-76
2023/08/29 02:40:00;;;;;;;4.55;3.55;;;12.70;99.90;;;;;;5021391;28;20348;-75
2023/08/29 02:42:26;;;;;;;5.07;3.78;;;12.70;99.90;;;;;;5022651;28;20053;-74
2023/08/29 02:44:52;;;;;;;6.72;3.78;;;12.70;99.90;;;;;;5022094;28;20037;-75
2023/08/29 02:47:17;;;;;;;3.95;3.20;;;12.60;99.90;;;;;;5022575;28;20022;-73
2023/08/29 02:49:43;;;;;;;7.68;3.40;;;12.60;99.90;;;;;;5020860;28;20026;-75
2023/08/29 02:52:08;;;;;;;5.95;3.05;;;12.60;99.90;;;;;;5022588;28;20033;-75
2023/08/29 02:54:34;;;;;;;4.53;3.50;;;12.60;99.90;;;;;;5022644;28;20034;-75
2023/08/29 02:57:00;;;;;;;7.88;4.55;;;12.60;99.90;;;;;;5022190;28;20030;-74
2023/08/29 02:59:26;;;;;;;7.70;4.90;;;12.60;99.90;;;;;;5022143;28;20489;-72
2023/08/29 03:01:52;;;;;;;7.50;5.15;;;12.60;99.90;;;;;;5020276;28;20018;-74
2023/08/29 03:04:17;;;;;;;7.95;5.20;;;12.70;99.90;;;;;;5020570;28;20048;-74
2023/08/29 03:06:43;;;;;;;9.40;5.60;;;12.70;99.90;;;;;;5021241;28;20053;-73
2023/08/29 03:09:08;;;;;;;10.20;6.07;;;12.70;99.90;;;;;;5020717;28;20129;-74
2023/08/29 03:11:34;;;;;;;9.65;6.65;;;12.60;99.90;;;;;;5021920;28;20101;-75
2023/08/29 03:14:00;;;;;;;9.68;6.55;;;12.70;99.90;;;;;;5020975;28;20846;-73
2023/08/29 03:16:25;;;;;;;8.70;5.90;;;12.70;99.90;;;;;;5021899;28;20117;-74
2023/08/29 03:18:51;;;;;;;12.27;6.38;;;12.70;99.90;;;;;;5021735;28;20546;-75
2023/08/29 03:21:17;;;;;;;9.75;6.13;;;12.60;99.90;;;;;;5021456;28;20471;-74
2023/08/29 03:23:43;;;;;;;9.25;5.65;;;12.60;99.90;;;;;;5021817;28;20045;-74
2023/08/29 03:26:10;;;;;;;9.98;6.07;;;12.60;99.90;;;;;;5021642;28;20021;-75
2023/08/29 03:28:37;;;;;;;7.75;5.85;;;12.70;99.90;;;;;;5020011;28;20104;-73
2023/08/29 03:31:20;;;;;;;9.52;6.25;;;12.60;99.90;;;;;;5020536;28;20038;-75
2023/08/29 03:33:46;;;;;;;9.35;6.53;;;12.60;99.90;;;;;;5021019;28;20058;-73
2023/08/29 03:36:12;;;;;;;10.98;6.43;;;12.60;99.90;;;;;;5020067;28;20021;-73
2023/08/29 03:38:39;;;;;;;9.88;6.70;;;12.60;99.90;;;;;;5021691;28;20032;-73
2023/08/29 03:41:06;;;;;;;11.77;6.57;;;12.60;99.90;;;;;;5021257;28;20029;-74
2023/08/29 03:43:33;;;;;;;11.90;7.28;;;12.50;99.90;;;;;;5021284;28;20391;-76
2023/08/29 03:46:00;;;;;;;10.32;6.70;;;12.60;99.90;;;;;;5020346;28;20088;-76
2023/08/29 03:48:26;;;;;;;10.52;6.88;;;12.50;99.90;;;;;;5018955;28;20068;-73
2023/08/29 03:50:52;;;;;;;10.50;7.43;;;12.50;99.90;;;;;;5020308;28;20033;-73
2023/08/29 03:53:18;;;;;;;8.80;6.57;;;12.50;99.90;;;;;;5019904;28;20494;-74
2023/08/29 03:55:44;;;;;;;11.95;7.20;;;12.40;99.90;;;;;;5021234;28;20045;-74
2023/08/29 03:58:09;;;;;;;9.73;6.97;;;12.50;99.90;;;;;;5021362;28;20487;-74
2023/08/29 04:00:35;;;;;;;12.27;6.90;;;12.40;99.90;;;;;;5019943;28;20432;-74
2023/08/29 04:03:02;;;;;;;8.77;6.43;;;12.50;99.90;;;;;;5019909;28;20113;-74
2023/08/29 04:05:28;;;;;;;9.70;6.82;;;12.40;99.90;;;;;;5021433;28;20030;-73
2023/08/29 04:07:54;;;;;;;10.48;6.88;;;12.40;99.90;;;;;;5019812;28;20045;-74
2023/08/29 04:10:19;;;;;;;11.15;7.45;;;12.40;99.90;;;;;;5019388;28;20077;-73
2023/08/29 04:12:45;;;;;;;11.23;7.20;;;12.40;99.90;;;;;;5019841;28;20032;-75
2023/08/29 04:15:12;;;;;;;13.95;7.13;;;12.40;99.90;;;;;;5019890;28;20116;-73
2023/08/29 04:17:39;;;;;;;10.63;6.93;;;12.40;99.90;;;;;;5018290;28;20034;-73
2023/08/29 04:20:08;;;;;;;11.15;6.85;;;12.40;99.90;;;;;;5020535;28;20029;-74
2023/08/29 04:22:35;;;;;;;10.35;7.47;;;12.40;99.90;;;;;;5018258;28;20053;-74
2023/08/29 04:25:05;;;;;;;10.68;7.10;;;12.40;99.90;;;;;;5020530;28;20042;-73
2023/08/29 04:27:31;;;;;;;12.13;8.07;;;12.40;99.90;;;;;;5020651;28;20026;-75
2023/08/29 04:29:57;;;;;;;13.38;7.68;;;12.40;99.90;;;;;;5019629;28;20048;-75
2023/08/29 04:32:23;;;;;;;11.68;8.00;;;12.40;99.90;;;;;;5022421;28;20038;-72
2023/08/29 04:34:49;;;;;;;15.88;8.00;;;12.50;99.90;;;;;;5020197;28;20049;-75
2023/08/29 04:37:16;;;;;;;11.40;7.97;;;12.40;99.90;;;;;;5019674;28;20033;-73
2023/08/29 04:39:42;;;;;;;12.55;7.93;;;12.40;99.90;;;;;;5020863;28;20458;-74
2023/08/29 04:42:07;;;;;;;14.73;8.32;;;12.40;99.90;;;;;;5023757;28;20064;-74
2023/08/29 04:44:36;;;;;;;12.80;8.10;;;12.40;99.90;;;;;;5020535;28;20088;-75
2023/08/29 04:47:03;;;;;;;13.35;8.93;;;12.40;99.90;;;;;;5021730;28;20030;-73
2023/08/29 04:49:29;;;;;;;13.02;8.27;;;12.30;99.90;;;;;;5016783;28;20038;-73
2023/08/29 04:51:55;;;;;;;13.20;8.52;;;12.30;99.90;;;;;;5021289;28;20048;-74
2023/08/29 04:54:21;;;;;;;12.68;8.70;;;12.30;99.90;;;;;;5020539;28;20097;-74
2023/08/29 04:56:46;;;;;;;14.68;9.65;;;12.30;99.90;;;;;;5022545;28;20025;-73
2023/08/29 04:59:12;;;;;;;17.23;10.80;;;12.30;99.90;;;;;;5021413;28;20037;-73
2023/08/29 05:01:38;;;;;;;20.73;11.98;;;12.30;99.90;;;;;;5022601;28;20030;-74
2023/08/29 05:04:04;;;;;;;23.63;14.30;;;12.30;99.90;;;;;;5022594;28;20037;-73
2023/08/29 05:06:30;;;;;;;22.95;13.48;;;12.40;99.90;;;;;;5039008;28;20116;-73
2023/08/29 05:08:56;;;;;;;22.30;13.55;;;12.40;99.90;;;;;;5023228;28;20022;-75
2023/08/29 05:11:21;;;;;;;25.55;15.40;;;12.40;99.90;;;;;;5022890;28;20026;-73
2023/08/29 05:13:47;;;;;;;25.67;15.65;;;12.40;99.90;;;;;;5022625;28;20030;-73
2023/08/29 05:16:12;;;;;;;28.30;15.50;;;12.50;99.90;;;;;;5023020;28;20029;-74
2023/08/29 05:18:38;;;;;;;28.60;16.60;;;12.60;99.90;;;;;;5023203;28;20485;-74
2023/08/29 05:21:03;;;;;;;29.60;16.75;;;12.60;99.90;;;;;;5024432;28;20022;-74
2023/08/29 05:23:30;;;;;;;30.17;16.25;;;12.70;99.90;;;;;;5022840;28;20022;-74
2023/08/29 05:25:55;;;;;;;29.08;16.63;;;12.70;99.90;;;;;;5021177;28;20065;-73
2023/08/29 05:28:21;;;;;;;33.42;18.20;;;12.70;99.90;;;;;;5023791;28;20113;-73
2023/08/29 05:30:46;;;;;;;31.95;19.00;;;12.80;99.90;;;;;;5022263;28;20024;-74
2023/08/29 05:33:12;;;;;;;34.33;19.58;;;12.80;99.90;;;;;;5022969;28;20022;-72
2023/08/29 05:35:38;;;;;;;32.15;18.42;;;12.90;99.90;;;;;;5022989;28;20058;-74
2023/08/29 05:38:03;;;;;;;35.00;19.17;;;12.90;99.90;;;;;;5023706;28;20029;-73
2023/08/29 05:40:29;;;;;;;31.65;18.05;;;12.90;99.90;;;;;;5023107;28;20029;-73
2023/08/29 05:42:55;;;;;;;38.00;20.15;;;12.90;99.90;;;;;;5021026;28;20026;-73
2023/08/29 05:45:20;;;;;;;38.58;19.77;;;13.00;99.90;;;;;;5021645;28;20045;-74
2023/08/29 05:47:46;;;;;;;30.50;18.08;;;13.00;99.90;;;;;;5023099;28;20080;-74
2023/08/29 05:50:11;;;;;;;38.63;19.48;;;13.10;99.90;;;;;;5021496;28;20400;-75
2023/08/29 05:52:37;;;;;;;38.65;19.70;;;13.10;99.90;;;;;;5023711;28;20026;-74
2023/08/29 05:55:03;;;;;;;34.28;19.30;;;13.20;99.90;;;;;;5021013;28;20037;-73
2023/08/29 05:57:29;;;;;;;35.72;20.30;;;13.20;99.90;;;;;;5018846;28;20022;-72
2023/08/29 05:59:55;;;;;;;38.30;20.83;;;13.30;99.90;;;;;;5020241;28;20110;-72
2023/08/29 06:02:21;;;;;;;35.35;20.27;;;13.20;99.90;;;;;;5021145;28;20034;-73
2023/08/29 06:04:47;;;;;;;37.53;20.58;;;13.40;99.90;;;;;;5019841;28;20103;-73
2023/08/29 06:07:13;;;;;;;27.60;14.63;;;13.40;99.90;;;;;;5020384;28;20061;-73
2023/08/29 06:09:39;;;;;;;24.25;13.48;;;13.50;99.90;;;;;;5021913;28;20026;-72
2023/08/29 06:12:06;;;;;;;20.10;11.82;;;13.50;99.90;;;;;;5021512;28;20034;-73
2023/08/29 06:14:32;;;;;;;28.48;16.85;;;13.50;99.90;;;;;;5023422;28;20026;-72
2023/08/29 06:16:57;;;;;;;34.25;19.27;;;13.50;99.90;;;;;;5022984;28;20032;-72
2023/08/29 06:19:23;;;;;;;33.97;19.13;;;13.60;99.90;;;;;;5021661;28;20119;-72
2023/08/29 06:21:49;;;;;;;34.22;19.98;;;13.60;99.90;;;;;;5022922;28;20108;-73
2023/08/29 06:24:14;;;;;;;37.58;20.17;;;13.70;99.90;;;;;;5021592;28;20053;-73
2023/08/29 06:26:41;;;;;;;32.20;18.23;;;13.70;99.90;;;;;;5022693;28;20104;-73
2023/08/29 06:29:06;;;;;;;34.42;19.25;;;13.70;99.90;;;;;;5017055;28;20037;-74
2023/08/29 06:31:32;;;;;;;33.38;18.88;;;13.80;99.90;;;;;;5016211;28;20033;-74
2023/08/29 06:33:59;;;;;;;31.67;17.98;;;13.80;99.90;;;;;;5018695;28;20056;-73
2023/08/29 06:36:26;;;;;;;30.08;17.08;;;13.90;99.90;;;;;;5021855;28;20116;-73
2023/08/29 06:38:52;;;;;;;30.45;16.77;;;13.90;99.90;;;;;;5019763;28;20033;-73
2023/08/29 06:41:17;;;;;;;27.45;16.17;;;14.00;99.90;;;;;;5021892;28;20094;-73
2023/08/29 06:43:43;;;;;;;25.25;14.23;;;14.00;99.90;;;;;;5021838;28;20026;-73
2023/08/29 06:46:09;;;;;;;22.65;13.75;;;14.10;99.90;;;;;;5019318;28;20030;-74
2023/08/29 06:48:34;;;;;;;20.35;13.00;;;14.10;99.90;;;;;;5019683;28;20026;-73
2023/08/29 06:51:00;;;;;;;18.60;11.93;;;14.20;99.90;;;;;;5017686;28;20204;-74
2023/08/29 06:53:26;;;;;;;17.58;11.40;;;14.20;99.90;;;;;;5019042;28;20030;-74
2023/08/29 06:55:52;;;;;;;16.77;10.30;;;14.20;99.90;;;;;;5017687;28;20030;-75
2023/08/29 06:58:17;;;;;;;15.98;10.32;;;14.20;99.90;;;;;;5019126;28;20026;-73
2023/08/29 07:00:43;;;;;;;14.93;9.82;;;14.30;99.90;;;;;;5020353;28;20033;-74
2023/08/29 07:03:09;;;;;;;14.68;9.82;;;14.40;99.90;;;;;;5021861;28;20467;-73
2023/08/29 07:05:34;;;;;;;15.23;9.68;;;14.40;99.90;;;;;;5021662;28;20038;-71
2023/08/29 07:08:00;;;;;;;13.52;9.02;;;14.40;99.90;;;;;;5020412;28;20038;-74
2023/08/29 07:10:26;;;;;;;11.90;8.25;;;14.50;99.90;;;;;;5022006;28;20030;-74
2023/08/29 07:12:51;;;;;;;12.00;8.00;;;14.50;99.90;;;;;;5021594;28;20084;-72
2023/08/29 07:15:18;;;;;;;13.05;7.38;;;14.60;99.90;;;;;;5020623;28;20037;-73
2023/08/29 07:17:44;;;;;;;11.98;8.18;;;14.70;99.90;;;;;;5019330;28;20483;-73
2023/08/29 07:20:10;;;;;;;11.57;7.57;;;14.70;99.90;;;;;;5019580;28;20033;-74
2023/08/29 07:22:43;;;;;;;10.88;7.30;;;14.70;99.90;;;;;;5021485;28;20029;-73
2023/08/29 07:25:11;;;;;;;10.63;7.20;;;14.80;99.90;;;;;;5021128;28;20041;-74
2023/08/29 07:27:36;;;;;;;14.05;6.80;;;14.90;99.90;;;;;;5019672;28;20053;-74
2023/08/29 07:30:03;;;;;;;9.70;6.50;;;14.90;99.90;;;;;;5020113;28;20029;-74
2023/08/29 07:32:30;;;;;;;10.25;5.72;;;15.00;99.90;;;;;;5021620;28;20021;-72
2023/08/29 07:34:56;;;;;;;8.20;5.65;;;15.00;99.90;;;;;;5019334;28;20061;-73
2023/08/29 07:37:22;;;;;;;8.05;5.60;;;15.00;99.90;;;;;;5019591;28;20033;-74
2023/08/29 07:39:48;;;;;;;9.57;5.80;;;15.10;99.90;;;;;;5020916;28;20022;-72
2023/08/29 07:42:14;;;;;;;11.52;6.30;;;15.10;99.90;;;;;;5019511;28;20032;-74
2023/08/29 07:44:39;;;;;;;9.50;6.00;;;15.20;99.90;;;;;;5019922;28;20104;-74
2023/08/29 07:47:05;;;;;;;7.40;5.32;;;15.30;99.90;;;;;;5020002;28;20030;-74
2023/08/29 07:49:31;;;;;;;8.23;5.50;;;15.30;99.90;;;;;;5018488;28;20091;-71
2023/08/29 07:51:57;;;;;;;9.93;5.72;;;15.40;99.90;;;;;;5019862;28;20038;-74
2023/08/29 07:54:22;;;;;;;7.38;5.90;;;15.50;99.90;;;;;;5016399;28;20025;-74
2023/08/29 07:56:48;;;;;;;5.88;4.95;;;15.50;99.90;;;;;;5019736;28;20124;-74
2023/08/29 07:59:14;;;;;;;7.38;4.72;;;15.50;99.90;;;;;;5020759;28;20033;-73
2023/08/29 08:01:42;;;;;;;7.68;5.13;;;15.50;99.90;;;;;;5020889;28;20057;-72
2023/08/29 08:04:08;;;;;;;12.73;5.40;;;15.60;99.90;;;;;;5018372;28;20053;-72
2023/08/29 08:06:34;;;;;;;9.32;5.20;;;15.60;99.90;;;;;;5022534;28;20026;-73
2023/08/29 08:09:00;;;;;;;9.98;5.10;;;15.60;99.90;;;;;;5022594;28;20038;-74
2023/08/29 08:11:26;;;;;;;7.47;4.82;;;15.70;99.90;;;;;;5020287;28;20086;-73
2023/08/29 08:13:52;;;;;;;8.77;5.15;;;15.70;99.90;;;;;;5022342;28;20061;-73
2023/08/29 08:16:17;;;;;;;7.30;5.35;;;15.80;99.90;;;;;;5025169;28;20030;-72
2023/08/29 08:18:43;;;;;;;6.88;4.63;;;15.80;99.90;;;;;;5021725;28;20030;-73
2023/08/29 08:21:09;;;;;;;9.30;5.50;;;15.90;99.90;;;;;;5024404;28;20030;-72
2023/08/29 08:23:34;;;;;;;7.35;5.18;;;15.90;99.90;;;;;;5023759;28;20033;-72
2023/08/29 08:26:00;;;;;;;8.82;5.30;;;16.00;99.90;;;;;;5022805;28;20061;-73
2023/08/29 08:28:25;;;;;;;6.35;5.05;;;16.00;99.90;;;;;;5022887;28;20103;-73
2023/08/29 08:30:51;;;;;;;9.68;5.30;;;16.10;99.90;;;;;;5021378;28;20030;-73
2023/08/29 08:33:17;;;;;;;6.35;4.90;;;16.20;99.90;;;;;;5020549;28;20041;-72
2023/08/29 08:35:43;;;;;;;8.70;5.38;;;16.20;99.90;;;;;;5020323;28;20138;-72
2023/08/29 08:38:09;;;;;;;6.60;4.72;;;16.30;99.90;;;;;;5021630;28;20026;-73
2023/08/29 08:40:41;;;;;;;8.80;5.38;;;16.30;99.90;;;;;;5028779;28;20589;-73
2023/08/29 08:43:09;;;;;;;11.93;4.85;;;16.30;99.90;;;;;;5021153;28;20036;-73
2023/08/29 08:45:36;;;;;;;6.85;5.13;;;16.40;99.90;;;;;;5020277;28;20127;-74
2023/08/29 08:48:03;;;;;;;12.90;5.38;;;16.50;99.90;;;;;;5023000;28;20038;-73
2023/08/29 08:50:29;;;;;;;6.93;4.50;;;16.50;99.90;;;;;;5020500;28;20045;-72
2023/08/29 08:52:58;;;;;;;7.55;4.97;;;16.50;99.90;;;;;;5023873;28;20030;-73
2023/08/29 08:55:25;;;;;;;7.00;4.30;;;16.50;99.90;;;;;;5023422;28;20030;-73
2023/08/29 08:57:52;;;;;;;8.52;4.55;;;16.60;99.90;;;;;;5021835;28;20030;-72
2023/08/29 09:00:19;;;;;;;6.50;3.95;;;16.70;99.90;;;;;;5021465;28;20026;-73
2023/08/29 09:02:45;;;;;;;6.90;4.28;;;16.70;99.90;;;;;;5024310;28;20117;-72
2023/08/29 09:05:11;;;;;;;7.20;4.38;;;16.80;99.90;;;;;;5021556;28;20061;-74
2023/08/29 09:07:40;;;;;;;4.82;3.35;;;16.80;99.90;;;;;;5021088;28;20069;-73
2023/08/29 09:10:08;;;;;;;5.68;4.25;;;16.90;99.90;;;;;;5021603;28;20029;-72
2023/08/29 09:12:34;;;;;;;6.18;3.85;;;17.00;99.90;;;;;;5022373;28;20076;-73
2023/08/29 09:15:04;;;;;;;9.73;4.88;;;17.10;99.90;;;;;;5022792;28;20467;-72
2023/08/29 09:17:30;;;;;;;5.82;4.20;;;17.10;99.90;;;;;;5020925;28;20030;-72
2023/08/29 09:20:05;;;;;;;5.40;3.95;;;17.10;99.90;;;;;;5021667;28;20037;-72
2023/08/29 09:22:31;;;;;;;8.43;3.63;;;17.10;99.90;;;;;;5020212;28;20057;-72
2023/08/29 09:25:03;;;;;;;4.35;2.95;;;17.10;99.90;;;;;;5021121;28;20044;-72
2023/08/29 09:27:28;;;;;;;4.07;2.90;;;17.20;99.90;;;;;;5020326;28;20026;-73
2023/08/29 09:30:08;;;;;;;6.53;3.15;;;17.20;99.90;;;;;;5021638;28;20065;-72
2023/08/29 09:32:34;;;;;;;4.88;2.75;;;17.30;99.90;;;;;;5016840;28;20065;-73
2023/08/29 09:35:00;;;;;;;6.93;4.57;;;17.30;99.90;;;;;;5034601;28;20050;-73
2023/08/29 09:37:26;;;;;;;6.57;4.45;;;17.30;99.90;;;;;;5020407;28;20041;-72
2023/08/29 09:39:53;;;;;;;6.63;4.20;;;17.40;99.90;;;;;;5022107;28;20030;-72
2023/08/29 09:42:21;;;;;;;6.22;3.90;;;17.40;99.90;;;;;;5022363;28;20046;-71
2023/08/29 09:44:49;;;;;;;6.25;4.30;;;17.40;99.90;;;;;;5021155;28;20056;-71
2023/08/29 09:47:22;;;;;;;6.82;4.15;;;17.50;99.90;;;;;;5023463;28;20025;-73
2023/08/29 09:49:48;;;;;;;5.97;3.63;;;17.60;99.90;;;;;;5019862;28;20022;-71
2023/08/29 09:52:15;;;;;;;6.38;4.03;;;17.70;99.90;;;;;;5021726;28;20087;-71
2023/08/29 09:54:51;;;;;;;5.95;4.25;;;17.70;99.90;;;;;;5021265;28;20029;-71
2023/08/29 09:57:24;;;;;;;6.97;4.53;;;17.80;99.90;;;;;;5020478;28;20040;-71
2023/08/29 09:59:52;;;;;;;8.00;4.68;;;17.90;99.90;;;;;;5018880;28;20077;-72
2023/08/29 10:02:20;;;;;;;8.88;4.38;;;18.00;99.90;;;;;;5021224;28;20041;-73
2023/08/29 10:04:52;;;;;;;6.40;3.83;;;18.10;99.90;;;;;;5022356;28;20073;-72
2023/08/29 10:07:28;;;;;;;7.60;4.18;;;18.10;99.90;;;;;;5021432;28;20034;-72
2023/08/29 10:09:55;;;;;;;8.52;4.35;;;18.20;99.90;;;;;;5022760;28;20037;-73
2023/08/29 10:12:21;;;;;;;4.75;3.35;;;18.30;99.90;;;;;;5021544;28;20029;-72
2023/08/29 10:14:48;;;;;;;7.53;3.45;;;18.30;99.90;;;;;;5019113;28;20032;-71
2023/08/29 10:17:14;;;;;;;6.32;3.17;;;18.30;99.90;;;;;;5018139;28;20085;-71
2023/08/29 10:19:42;;;;;;;7.00;3.30;;;18.40;99.90;;;;;;5014773;28;20062;-72
2023/08/29 10:22:12;;;;;;;3.78;2.47;;;18.40;99.90;;;;;;5010915;28;20022;-73
2023/08/29 10:24:42;;;;;;;3.25;2.42;;;18.50;99.90;;;;;;5014146;28;20054;-72
2023/08/29 10:27:07;;;;;;;3.42;2.42;;;18.50;99.90;;;;;;5017978;28;20073;-71
2023/08/29 10:29:33;;;;;;;4.80;2.80;;;18.60;99.90;;;;;;5019951;28;20049;-71
2023/08/29 10:32:01;;;;;;;3.45;2.60;;;18.60;99.90;;;;;;5020108;28;20026;-71
2023/08/29 10:34:28;;;;;;;2.83;1.70;;;18.70;99.90;;;;;;5021753;28;20041;-70
2023/08/29 10:36:55;;;;;;;2.55;1.80;;;18.80;99.90;;;;;;5021655;28;20065;-70
2023/08/29 10:39:21;;;;;;;2.50;1.85;;;18.90;99.90;;;;;;5021414;28;20021;-72
2023/08/29 10:41:48;;;;;;;4.22;1.80;;;19.00;99.90;;;;;;5021972;28;20018;-72
2023/08/29 10:44:31;;;;;;;2.40;1.77;;;19.10;99.90;;;;;;5021819;28;20042;-70
2023/08/29 10:47:16;;;;;;;3.30;1.80;;;19.20;99.90;;;;;;5027096;28;20433;-72
2023/08/29 10:49:46;;;;;;;1.80;1.50;;;19.20;99.90;;;;;;5020130;28;20161;-73
2023/08/29 10:52:13;;;;;;;4.63;2.92;;;19.20;99.90;;;;;;5020066;28;20018;-71
2023/08/29 10:54:38;;;;;;;4.82;3.30;;;19.20;99.90;;;;;;5021739;28;20026;-70
2023/08/29 10:57:28;;;;;;;4.82;2.75;;;19.20;99.90;;;;;;5020227;28;20030;-72
2023/08/29 10:59:54;;;;;;;4.05;2.30;;;19.30;99.90;;;;;;5020289;28;20022;-71
2023/08/29 11:02:29;;;;;;;4.50;2.15;;;19.30;99.90;;;;;;5020094;28;20045;-71
2023/08/29 11:05:03;;;;;;;;;;;19.40;99.90;;;;;;5021886;28;20534;-72
2023/08/29 11:07:29;;;;;;;2.90;1.98;;;19.40;99.90;;;;;;5021401;28;19910;-71
2023/08/29 11:10:23;;;;;;;5.57;2.90;;;19.40;99.90;;;;;;5020246;28;20069;-71
2023/08/29 11:13:02;;;;;;;4.93;2.67;;;19.40;99.90;;;;;;5021413;28;20033;-73
2023/08/29 11:16:04;;;;;;;3.25;2.25;;;19.30;99.90;;;;;;5028095;28;20034;-73
2023/08/29 11:18:32;;;;;;;6.00;2.78;;;19.30;99.90;;;;;;5024730;28;20033;-71
2023/08/29 11:21:05;;;;;;;3.78;2.38;;;19.20;99.90;;;;;;5019767;28;20026;-73
2023/08/29 11:23:40;;;;;;;5.18;2.60;;;19.30;99.90;;;;;;5021337;28;20056;-71
2023/08/29 11:26:06;;;;;;;2.30;2.10;;;19.30;99.90;;;;;;5019028;28;20171;-73
2023/08/29 11:28:35;;;;;;;4.28;2.38;;;19.40;99.90;;;;;;5020703;28;20018;-71
2023/08/29 11:31:01;;;;;;;3.97;2.60;;;19.40;99.90;;;;;;5021015;28;20030;-72
2023/08/29 11:33:32;;;;;;;3.75;2.30;;;19.50;99.90;;;;;;5020385;28;20025;-71
2023/08/29 11:36:00;;;;;;;6.78;2.63;;;19.50;99.90;;;;;;5020553;28;20061;-71
2023/08/29 11:38:30;;;;;;;3.42;2.58;;;19.60;99.90;;;;;;5020224;28;20034;-70
2023/08/29 11:40:57;;;;;;;4.03;2.22;;;19.60;99.90;;;;;;5020537;28;20060;-72
2023/08/29 11:43:24;;;;;;;4.15;2.17;;;19.70;99.90;;;;;;5014605;28;20034;-72
2023/08/29 11:45:57;;;;;;;3.80;2.80;;;19.70;99.90;;;;;;5018152;28;20098;-72
2023/08/29 11:48:28;;;;;;;3.22;1.95;;;19.70;99.90;;;;;;5018929;28;20625;-71
2023/08/29 11:50:55;;;;;;;2.95;2.17;;;19.70;99.90;;;;;;5020101;28;20033;-71
2023/08/29 11:53:28;;;;;;;4.15;2.13;;;19.80;99.90;;;;;;5019277;28;20068;-71
2023/08/29 11:55:54;;;;;;;2.63;1.60;;;19.80;99.90;;;;;;5018142;28;20036;-72
2023/08/29 11:58:23;;;;;;;3.38;2.10;;;19.80;99.90;;;;;;5015704;28;20034;-71
2023/08/29 12:00:49;;;;;;;4.85;2.15;;;19.80;99.90;;;;;;5016120;28;20041;-73
2023/08/29 12:03:19;;;;;;;2.70;1.70;;;19.90;99.90;;;;;;5018757;28;20089;-73
2023/08/29 12:05:45;;;;;;;3.90;2.10;;;19.80;99.90;;;;;;5019382;28;20044;-70
2023/08/29 12:08:11;;;;;;;4.53;2.63;;;19.80;99.90;;;;;;5018446;28;20030;-73
2023/08/29 12:10:37;;;;;;;3.53;2.30;;;19.80;99.90;;;;;;5020227;28;20022;-72
2023/08/29 12:13:12;;;;;;;3.55;2.20;;;19.90;99.90;;;;;;5019120;28;20049;-72
2023/08/29 12:15:38;;;;;;;2.60;2.10;;;19.90;99.90;;;;;;5017692;28;20086;-72
2023/08/29 12:18:04;;;;;;;2.38;1.88;;;19.90;99.90;;;;;;5018832;28;20022;-73
2023/08/29 12:20:31;;;;;;;4.07;2.17;;;19.90;99.90;;;;;;5017708;28;20029;-72
2023/08/29 12:22:57;;;;;;;4.60;2.85;;;19.90;99.90;;;;;;5018072;28;20030;-73
2023/08/29 12:25:23;;;;;;;4.05;2.63;;;19.90;99.90;;;;;;5019370;28;20041;-72
2023/08/29 12:27:49;;;;;;;5.15;2.60;;;19.80;99.90;;;;;;5018943;28;20477;-70
2023/08/29 12:30:15;;;;;;;5.22;2.90;;;19.80;99.90;;;;;;5019237;28;20082;-73
2023/08/29 12:32:45;;;;;;;9.43;3.67;;;19.70;99.90;;;;;;5016959;28;20037;-72
2023/08/29 12:35:11;;;;;;;6.15;2.95;;;19.70;99.90;;;;;;5016865;28;20109;-73
2023/08/29 12:37:38;;;;;;;8.38;2.65;;;19.70;99.90;;;;;;5018655;28;20093;-72
2023/08/29 12:40:05;;;;;;;4.57;2.70;;;19.70;99.90;;;;;;5018985;28;20021;-71